Terminal Aerodrome Forecast
Issued by NWS Cleveland, OH

Home | Current Version | Previous Version | Graphics & Text | Print | Product List | Glossary On
Versions: 1 2 3 4 5 6 7 8 9 10 11 12 13 14 15 16
164
FTUS41 KCLE 281133
TAFERI
TAF
KERI 281133Z 2812/2912 15005KT P6SM SCT250
     FM281700 03008KT P6SM BKN050 BKN120
     FM282100 12008KT P6SM VCTS BKN045CB
     FM290000 16015G25KT P6SM VCTS OVC045CB
      TEMPO 2901/2904 3SM -TSRA BR BKN030CB
     FM290500 20015KT P6SM VCSH OVC030
     FM291000 25012G20KT P6SM OVC030=

USA.gov is the U.S. government's official web portal to all federal, state and local government web resources and services.